CheckWX is a tool to help pilots better visualize weather data.  It is not intended as a substitute for an official pre-flight weather briefing.

13:04:36 UTC

FDMS METAR
Matsapha Airport
Manzini, Swaziland
Current

5 hours ago

FDMS 200800Z VRB02KT CAVOK 22/08 Q1021 NOSIG
Observed
May-20 @ 08:00 UTC
Wind
  • Variable at 2 KTS
Visibility
10,000+ meters
Flight Rules
VFR
Cloud Levels
  • Clear skies
Temperature
22°C / 72°F
Dewpoint
C / 46°F
Humidity
41%
Altimeter
30.15" Hg
Pressure
1020.92 hPa
Previous

6 hours ago

FDMS 200700Z VRB02KT CAVOK 19/08 Q1021
Observed
May-20 @ 07:00 UTC
Wind
  • Variable at 2 KTS
Visibility
10,000+ meters
Flight Rules
VFR
Cloud Levels
  • Clear skies
Temperature
19°C / 66°F
Dewpoint
C / 46°F
Humidity
49%
Altimeter
30.15" Hg
Pressure
1020.92 hPa